Orbital elements of GARUDA 1
| Launched | 11 February 2000 |
| Flight ended | – |
| Launch site | Tyuratam Missile and Space Center, Kazakhstan (Also known as Baikonur Cosmodrome) |
| Owner | Indonesia |
| NORAD ID | 26089 |
| Date fetched |
Epoch osculation |
Inc. [°] |
Ecc. | RA asc node [hr] |
Arg Peri. [°] |
Mean anom [°] |
Mean motion [rev/day] |
Abs. mag |
| Date fetched |
Epoch osculation |
Inc. [°] |
Ecc. | RA asc node [hr] |
Arg Peri. [°] |
Mean anom [°] |
Mean motion [rev/day] |
Abs. mag |
| 2026 May 08 17:57 | 2026 May 05 13:36:33 | 9.5516 | 0.00026 | 4.2930 | 292.7501 | 253.2316 | 0.99922 | – |
| 2026 May 07 17:58 | 2026 May 05 13:36:33 | 9.5516 | 0.00026 | 4.2930 | 292.7501 | 253.2316 | 0.99922 | – |
| 2026 May 06 17:57 | 2026 May 05 13:36:33 | 9.5516 | 0.00026 | 4.2930 | 292.7501 | 253.2316 | 0.99922 | – |
| 2026 May 05 17:57 | 2026 May 05 13:36:33 | 9.5516 | 0.00026 | 4.2930 | 292.7501 | 253.2316 | 0.99922 | – |
| 2026 May 04 17:57 | 2026 Apr 30 12:35:03 | 9.5390 | 0.00028 | 4.2971 | 288.3417 | 253.2316 | 0.99922 | – |
| 2026 May 03 17:57 | 2026 Apr 30 12:35:03 | 9.5390 | 0.00028 | 4.2971 | 288.3417 | 253.2316 | 0.99922 | – |
| 2026 May 02 17:57 | 2026 Apr 30 12:35:03 | 9.5390 | 0.00028 | 4.2971 | 288.3417 | 253.2316 | 0.99922 | – |
| 2026 May 01 17:56 | 2026 Apr 30 12:35:03 | 9.5390 | 0.00028 | 4.2971 | 288.3417 | 253.2316 | 0.99922 | – |
| 2026 Apr 30 17:56 | 2026 Apr 30 12:35:03 | 9.5390 | 0.00028 | 4.2971 | 288.3417 | 253.2316 | 0.99922 | – |
| 2026 Apr 29 17:57 | 2026 Apr 24 13:03:38 | 9.5241 | 0.00031 | 4.3019 | 284.6667 | 253.2316 | 0.99922 | – |
| 2026 Apr 28 17:56 | 2026 Apr 24 13:03:38 | 9.5241 | 0.00031 | 4.3019 | 284.6667 | 253.2316 | 0.99922 | – |
| 2026 Apr 27 17:58 | 2026 Apr 24 13:03:38 | 9.5241 | 0.00031 | 4.3019 | 284.6667 | 253.2316 | 0.99922 | – |
| 2026 Apr 26 17:58 | 2026 Apr 24 13:03:38 | 9.5241 | 0.00031 | 4.3019 | 284.6667 | 253.2316 | 0.99922 | – |
| 2026 Apr 25 17:58 | 2026 Apr 24 13:03:38 | 9.5241 | 0.00031 | 4.3019 | 284.6667 | 253.2316 | 0.99922 | – |
| 2026 Apr 24 17:59 | 2026 Apr 24 13:03:38 | 9.5241 | 0.00031 | 4.3019 | 284.6667 | 253.2316 | 0.99922 | – |
| 2026 Apr 23 17:57 | 2026 Apr 19 11:14:56 | 9.5119 | 0.00034 | 4.3061 | 280.5996 | 253.2316 | 0.99922 | – |
| 2026 Apr 22 17:57 | 2026 Apr 19 11:14:56 | 9.5119 | 0.00034 | 4.3061 | 280.5996 | 253.2316 | 0.99922 | – |
| 2026 Apr 21 17:57 | 2026 Apr 19 11:14:56 | 9.5119 | 0.00034 | 4.3061 | 280.5996 | 253.2316 | 0.99922 | – |
| 2026 Apr 20 17:57 | 2026 Apr 19 11:14:56 | 9.5119 | 0.00034 | 4.3061 | 280.5996 | 253.2316 | 0.99922 | – |
| 2026 Apr 19 17:58 | 2026 Apr 19 11:14:56 | 9.5119 | 0.00034 | 4.3061 | 280.5996 | 253.2316 | 0.99922 | – |
| 2026 Apr 18 17:56 | 2026 Apr 13 01:32:38 | 9.4963 | 0.00036 | 4.3113 | 273.8010 | 253.2316 | 0.99922 | – |
| 2026 Apr 16 17:57 | 2026 Apr 13 01:32:38 | 9.4963 | 0.00036 | 4.3113 | 273.8010 | 253.2316 | 0.99922 | – |
| 2026 Apr 14 17:57 | 2026 Apr 13 01:32:38 | 9.4963 | 0.00036 | 4.3113 | 273.8010 | 253.2316 | 0.99922 | – |
| 2026 Apr 13 17:57 | 2026 Apr 13 01:32:38 | 9.4963 | 0.00036 | 4.3113 | 273.8010 | 253.2316 | 0.99922 | – |
| 2026 Apr 12 17:57 | 2026 Apr 08 13:09:38 | 9.4849 | 0.00038 | 4.3150 | 269.1907 | 253.2316 | 0.99922 | – |
| 2026 Apr 11 17:57 | 2026 Apr 08 13:09:38 | 9.4849 | 0.00038 | 4.3150 | 269.1907 | 253.2316 | 0.99922 | – |